sensor_id;sensor_type;location;lat;lon;timestamp;temperature;humidity
16287;DHT22;8251;53.568;10.018;2022-10-03T00:05:25;15.20;91.50
16287;DHT22;8251;53.568;10.018;2022-10-03T00:08:03;15.20;91.60
16287;DHT22;8251;53.568;10.018;2022-10-03T00:10:48;15.20;91.70
16287;DHT22;8251;53.568;10.018;2022-10-03T00:13:20;15.20;91.70
16287;DHT22;8251;53.568;10.018;2022-10-03T00:16:02;15.20;91.70
16287;DHT22;8251;53.568;10.018;2022-10-03T00:18:39;15.20;91.50
16287;DHT22;8251;53.568;10.018;2022-10-03T00:21:23;15.20;91.60
16287;DHT22;8251;53.568;10.018;2022-10-03T00:23:59;15.20;91.70
16287;DHT22;8251;53.568;10.018;2022-10-03T00:26:37;15.20;91.70
16287;DHT22;8251;53.568;10.018;2022-10-03T00:29:18;15.20;91.60
16287;DHT22;8251;53.568;10.018;2022-10-03T00:31:55;15.20;91.70
16287;DHT22;8251;53.568;10.018;2022-10-03T00:34:34;15.20;91.70
16287;DHT22;8251;53.568;10.018;2022-10-03T00:37:18;15.20;91.70
16287;DHT22;8251;53.568;10.018;2022-10-03T00:46:01;15.10;91.70
16287;DHT22;8251;53.568;10.018;2022-10-03T00:49:12;15.10;91.70
16287;DHT22;8251;53.568;10.018;2022-10-03T00:51:55;15.10;91.70
16287;DHT22;8251;53.568;10.018;2022-10-03T00:54:44;15.10;91.70
16287;DHT22;8251;53.568;10.018;2022-10-03T00:57:27;15.10;91.80
16287;DHT22;8251;53.568;10.018;2022-10-03T01:00:15;15.10;91.90
16287;DHT22;8251;53.568;10.018;2022-10-03T01:03:00;15.10;91.90
16287;DHT22;8251;53.568;10.018;2022-10-03T01:05:41;15.20;91.90
16287;DHT22;8251;53.568;10.018;2022-10-03T01:08:37;15.20;91.80
16287;DHT22;8251;53.568;10.018;2022-10-03T01:11:19;15.20;91.80
16287;DHT22;8251;53.568;10.018;2022-10-03T01:13:59;15.30;91.80
16287;DHT22;8251;53.568;10.018;2022-10-03T01:16:37;15.30;91.80
16287;DHT22;8251;53.568;10.018;2022-10-03T01:19:26;15.30;91.80
16287;DHT22;8251;53.568;10.018;2022-10-03T01:22:10;15.30;91.70
16287;DHT22;8251;53.568;10.018;2022-10-03T01:24:51;15.30;91.70
16287;DHT22;8251;53.568;10.018;2022-10-03T01:31:00;15.40;91.70
16287;DHT22;8251;53.568;10.018;2022-10-03T01:37:14;15.40;91.60
16287;DHT22;8251;53.568;10.018;2022-10-03T01:39:51;15.40;91.60
16287;DHT22;8251;53.568;10.018;2022-10-03T01:42:32;15.40;91.70
16287;DHT22;8251;53.568;10.018;2022-10-03T01:45:07;15.40;91.60
16287;DHT22;8251;53.568;10.018;2022-10-03T01:47:45;15.40;91.50
16287;DHT22;8251;53.568;10.018;2022-10-03T01:50:22;15.30;91.50
16287;DHT22;8251;53.568;10.018;2022-10-03T01:52:56;15.30;91.40
16287;DHT22;8251;53.568;10.018;2022-10-03T01:55:36;15.30;91.30
16287;DHT22;8251;53.568;10.018;2022-10-03T01:58:10;15.20;91.30
16287;DHT22;8251;53.568;10.018;2022-10-03T02:00:44;15.20;91.30
16287;DHT22;8251;53.568;10.018;2022-10-03T02:03:20;15.20;91.30
16287;DHT22;8251;53.568;10.018;2022-10-03T02:05:56;15.20;91.20
16287;DHT22;8251;53.568;10.018;2022-10-03T02:08:30;15.20;91.20
16287;DHT22;8251;53.568;10.018;2022-10-03T02:11:02;15.20;91.20
16287;DHT22;8251;53.568;10.018;2022-10-03T02:13:41;15.20;91.20
16287;DHT22;8251;53.568;10.018;2022-10-03T02:16:14;15.10;91.60
16287;DHT22;8251;53.568;10.018;2022-10-03T02:18:50;15.10;91.30
16287;DHT22;8251;53.568;10.018;2022-10-03T02:21:21;15.20;91.30
16287;DHT22;8251;53.568;10.018;2022-10-03T02:24:07;15.20;91.20
16287;DHT22;8251;53.568;10.018;2022-10-03T02:29:56;15.20;91.20
16287;DHT22;8251;53.568;10.018;2022-10-03T02:33:09;15.20;91.10
16287;DHT22;8251;53.568;10.018;2022-10-03T02:36:08;15.20;91.10
16287;DHT22;8251;53.568;10.018;2022-10-03T02:42:01;15.10;90.90
16287;DHT22;8251;53.568;10.018;2022-10-03T02:45:00;15.10;91.00
16287;DHT22;8251;53.568;10.018;2022-10-03T02:50:50;15.00;91.10
16287;DHT22;8251;53.568;10.018;2022-10-03T02:53:53;15.00;91.10
16287;DHT22;8251;53.568;10.018;2022-10-03T02:56:55;15.00;91.20
16287;DHT22;8251;53.568;10.018;2022-10-03T03:03:00;14.90;91.50
16287;DHT22;8251;53.568;10.018;2022-10-03T03:05:58;14.90;91.10
16287;DHT22;8251;53.568;10.018;2022-10-03T03:08:51;14.90;91.10
16287;DHT22;8251;53.568;10.018;2022-10-03T03:11:40;14.80;91.20
16287;DHT22;8251;53.568;10.018;2022-10-03T03:14:37;14.80;91.60
16287;DHT22;8251;53.568;10.018;2022-10-03T03:17:29;14.80;91.20
16287;DHT22;8251;53.568;10.018;2022-10-03T03:20:16;14.80;91.30
16287;DHT22;8251;53.568;10.018;2022-10-03T03:23:07;14.80;91.20
16287;DHT22;8251;53.568;10.018;2022-10-03T03:25:54;14.90;91.20
16287;DHT22;8251;53.568;10.018;2022-10-03T03:28:34;14.80;91.00
16287;DHT22;8251;53.568;10.018;2022-10-03T03:31:09;14.80;91.00
16287;DHT22;8251;53.568;10.018;2022-10-03T03:33:48;14.80;91.10
16287;DHT22;8251;53.568;10.018;2022-10-03T03:36:25;14.80;91.20
16287;DHT22;8251;53.568;10.018;2022-10-03T03:39:05;14.80;91.10
16287;DHT22;8251;53.568;10.018;2022-10-03T03:41:51;14.80;91.10
16287;DHT22;8251;53.568;10.018;2022-10-03T03:44:57;14.80;91.20
16287;DHT22;8251;53.568;10.018;2022-10-03T03:47:49;14.80;91.20
16287;DHT22;8251;53.568;10.018;2022-10-03T03:53:37;14.70;91.20
16287;DHT22;8251;53.568;10.018;2022-10-03T03:56:24;14.70;91.20
16287;DHT22;8251;53.568;10.018;2022-10-03T03:59:04;14.70;91.10
16287;DHT22;8251;53.568;10.018;2022-10-03T04:02:06;14.70;91.20
16287;DHT22;8251;53.568;10.018;2022-10-03T04:04:58;14.80;91.20
16287;DHT22;8251;53.568;10.018;2022-10-03T04:07:38;14.80;91.20
16287;DHT22;8251;53.568;10.018;2022-10-03T04:10:30;14.80;91.20
16287;DHT22;8251;53.568;10.018;2022-10-03T04:13:40;14.80;91.20
16287;DHT22;8251;53.568;10.018;2022-10-03T04:16:37;14.80;91.60
16287;DHT22;8251;53.568;10.018;2022-10-03T04:19:31;14.80;91.20
16287;DHT22;8251;53.568;10.018;2022-10-03T04:22:17;14.80;91.20
16287;DHT22;8251;53.568;10.018;2022-10-03T04:25:17;14.80;91.10
16287;DHT22;8251;53.568;10.018;2022-10-03T04:28:15;14.80;91.20
16287;DHT22;8251;53.568;10.018;2022-10-03T04:30:56;14.70;91.10
16287;DHT22;8251;53.568;10.018;2022-10-03T04:33:38;14.70;91.20
16287;DHT22;8251;53.568;10.018;2022-10-03T04:36:32;14.70;91.60
16287;DHT22;8251;53.568;10.018;2022-10-03T04:39:09;14.70;91.30
16287;DHT22;8251;53.568;10.018;2022-10-03T04:41:46;14.70;91.30
16287;DHT22;8251;53.568;10.018;2022-10-03T04:44:30;14.70;91.30
16287;DHT22;8251;53.568;10.018;2022-10-03T04:47:02;14.70;91.30
16287;DHT22;8251;53.568;10.018;2022-10-03T04:49:38;14.70;91.40
16287;DHT22;8251;53.568;10.018;2022-10-03T04:52:16;14.70;91.40
16287;DHT22;8251;53.568;10.018;2022-10-03T04:55:01;14.70;91.40
16287;DHT22;8251;53.568;10.018;2022-10-03T04:57:35;14.70;91.40
16287;DHT22;8251;53.568;10.018;2022-10-03T05:00:21;14.70;91.40
16287;DHT22;8251;53.568;10.018;2022-10-03T05:02:54;14.70;91.40
16287;DHT22;8251;53.568;10.018;2022-10-03T05:08:27;14.60;91.50
16287;DHT22;8251;53.568;10.018;2022-10-03T05:11:19;14.60;91.50
16287;DHT22;8251;53.568;10.018;2022-10-03T05:13:58;14.60;91.60
16287;DHT22;8251;53.568;10.018;2022-10-03T05:16:36;14.60;91.70
16287;DHT22;8251;53.568;10.018;2022-10-03T05:19:40;14.60;91.70
16287;DHT22;8251;53.568;10.018;2022-10-03T05:22:28;14.60;91.60
16287;DHT22;8251;53.568;10.018;2022-10-03T05:25:16;14.60;91.80
16287;DHT22;8251;53.568;10.018;2022-10-03T05:27:52;14.50;91.80
16287;DHT22;8251;53.568;10.018;2022-10-03T05:30:28;14.50;91.90
16287;DHT22;8251;53.568;10.018;2022-10-03T05:33:04;14.50;91.90
16287;DHT22;8251;53.568;10.018;2022-10-03T05:35:48;14.50;91.90
16287;DHT22;8251;53.568;10.018;2022-10-03T05:38:43;14.50;91.90
16287;DHT22;8251;53.568;10.018;2022-10-03T05:41:19;14.50;92.00
16287;DHT22;8251;53.568;10.018;2022-10-03T05:44:03;14.50;92.00
16287;DHT22;8251;53.568;10.018;2022-10-03T05:46:53;14.50;91.90
16287;DHT22;8251;53.568;10.018;2022-10-03T05:52:43;14.50;91.90
16287;DHT22;8251;53.568;10.018;2022-10-03T05:55:36;14.50;91.90
16287;DHT22;8251;53.568;10.018;2022-10-03T05:58:41;14.50;91.90
16287;DHT22;8251;53.568;10.018;2022-10-03T06:04:49;14.60;92.00
16287;DHT22;8251;53.568;10.018;2022-10-03T06:07:24;14.60;92.00
16287;DHT22;8251;53.568;10.018;2022-10-03T06:10:30;14.60;92.10
16287;DHT22;8251;53.568;10.018;2022-10-03T06:13:14;14.60;92.00
16287;DHT22;8251;53.568;10.018;2022-10-03T06:15:57;14.60;92.00
16287;DHT22;8251;53.568;10.018;2022-10-03T06:18:58;14.60;92.00
16287;DHT22;8251;53.568;10.018;2022-10-03T06:25:10;14.70;92.00
16287;DHT22;8251;53.568;10.018;2022-10-03T06:28:16;14.80;92.00
16287;DHT22;8251;53.568;10.018;2022-10-03T06:31:06;14.80;92.30
16287;DHT22;8251;53.568;10.018;2022-10-03T06:37:00;14.90;92.00
16287;DHT22;8251;53.568;10.018;2022-10-03T06:40:04;14.90;92.00
16287;DHT22;8251;53.568;10.018;2022-10-03T06:42:58;15.00;92.00
16287;DHT22;8251;53.568;10.018;2022-10-03T06:45:48;15.00;91.90
16287;DHT22;8251;53.568;10.018;2022-10-03T06:48:47;15.10;91.90
16287;DHT22;8251;53.568;10.018;2022-10-03T06:51:55;15.10;91.80
16287;DHT22;8251;53.568;10.018;2022-10-03T06:55:11;15.20;91.80
16287;DHT22;8251;53.568;10.018;2022-10-03T06:58:11;15.20;91.80
16287;DHT22;8251;53.568;10.018;2022-10-03T07:01:07;15.30;91.80
16287;DHT22;8251;53.568;10.018;2022-10-03T07:04:02;15.30;91.80
16287;DHT22;8251;53.568;10.018;2022-10-03T07:07:04;15.30;91.70
16287;DHT22;8251;53.568;10.018;2022-10-03T07:12:50;15.40;91.80
16287;DHT22;8251;53.568;10.018;2022-10-03T07:16:10;15.50;91.80
16287;DHT22;8251;53.568;10.018;2022-10-03T07:19:17;15.60;91.40
16287;DHT22;8251;53.568;10.018;2022-10-03T07:22:14;15.70;91.20
16287;DHT22;8251;53.568;10.018;2022-10-03T07:28:20;16.00;91.00
16287;DHT22;8251;53.568;10.018;2022-10-03T07:31:02;16.10;90.80
16287;DHT22;8251;53.568;10.018;2022-10-03T07:33:49;16.10;90.60
16287;DHT22;8251;53.568;10.018;2022-10-03T07:36:54;16.10;90.50
16287;DHT22;8251;53.568;10.018;2022-10-03T07:40:06;16.20;90.60
16287;DHT22;8251;53.568;10.018;2022-10-03T07:45:44;16.40;90.10
16287;DHT22;8251;53.568;10.018;2022-10-03T07:48:49;16.40;90.00
16287;DHT22;8251;53.568;10.018;2022-10-03T07:51:31;16.40;90.20
16287;DHT22;8251;53.568;10.018;2022-10-03T07:54:27;16.50;90.30
16287;DHT22;8251;53.568;10.018;2022-10-03T07:57:32;16.80;90.20
16287;DHT22;8251;53.568;10.018;2022-10-03T08:00:21;17.00;89.30
16287;DHT22;8251;53.568;10.018;2022-10-03T08:03:35;17.10;88.50
16287;DHT22;8251;53.568;10.018;2022-10-03T08:06:18;17.10;88.30
16287;DHT22;8251;53.568;10.018;2022-10-03T08:09:17;17.10;88.50
16287;DHT22;8251;53.568;10.018;2022-10-03T08:14:54;17.30;88.10
16287;DHT22;8251;53.568;10.018;2022-10-03T08:20:43;17.50;87.80
16287;DHT22;8251;53.568;10.018;2022-10-03T08:23:42;18.00;88.00
16287;DHT22;8251;53.568;10.018;2022-10-03T08:26:18;18.80;84.60
16287;DHT22;8251;53.568;10.018;2022-10-03T08:29:13;19.70;82.00
16287;DHT22;8251;53.568;10.018;2022-10-03T08:32:31;20.50;79.50
16287;DHT22;8251;53.568;10.018;2022-10-03T08:35:21;21.30;75.50
16287;DHT22;8251;53.568;10.018;2022-10-03T08:38:31;21.30;73.40
16287;DHT22;8251;53.568;10.018;2022-10-03T08:44:41;21.80;72.70
16287;DHT22;8251;53.568;10.018;2022-10-03T08:47:43;22.00;71.70
16287;DHT22;8251;53.568;10.018;2022-10-03T08:50:46;21.90;71.60
16287;DHT22;8251;53.568;10.018;2022-10-03T08:56:32;21.20;73.40
16287;DHT22;8251;53.568;10.018;2022-10-03T08:59:48;20.80;74.50
16287;DHT22;8251;53.568;10.018;2022-10-03T09:09:27;19.80;77.40
16287;DHT22;8251;53.568;10.018;2022-10-03T09:12:28;19.80;78.30
16287;DHT22;8251;53.568;10.018;2022-10-03T09:15:19;19.70;78.70
16287;DHT22;8251;53.568;10.018;2022-10-03T09:18:29;19.60;78.40
16287;DHT22;8251;53.568;10.018;2022-10-03T09:21:37;19.60;79.30
16287;DHT22;8251;53.568;10.018;2022-10-03T09:24:45;19.40;79.50
16287;DHT22;8251;53.568;10.018;2022-10-03T09:27:42;19.40;79.90
16287;DHT22;8251;53.568;10.018;2022-10-03T09:30:26;19.20;80.10
16287;DHT22;8251;53.568;10.018;2022-10-03T09:39:21;19.20;81.50
16287;DHT22;8251;53.568;10.018;2022-10-03T09:45:37;19.10;81.90
16287;DHT22;8251;53.568;10.018;2022-10-03T09:54:18;19.10;82.10
16287;DHT22;8251;53.568;10.018;2022-10-03T09:57:19;19.10;81.80
16287;DHT22;8251;53.568;10.018;2022-10-03T10:00:14;19.10;82.10
16287;DHT22;8251;53.568;10.018;2022-10-03T10:03:12;19.00;82.10
16287;DHT22;8251;53.568;10.018;2022-10-03T10:12:17;19.00;82.50
16287;DHT22;8251;53.568;10.018;2022-10-03T10:15:31;19.00;82.90
16287;DHT22;8251;53.568;10.018;2022-10-03T10:18:37;19.10;82.90
16287;DHT22;8251;53.568;10.018;2022-10-03T10:24:50;19.20;82.40
16287;DHT22;8251;53.568;10.018;2022-10-03T10:27:55;19.30;81.60
16287;DHT22;8251;53.568;10.018;2022-10-03T10:30:45;19.20;81.00
16287;DHT22;8251;53.568;10.018;2022-10-03T10:37:04;19.10;81.70
16287;DHT22;8251;53.568;10.018;2022-10-03T10:40:07;19.20;81.00
16287;DHT22;8251;53.568;10.018;2022-10-03T10:46:16;19.20;79.50
16287;DHT22;8251;53.568;10.018;2022-10-03T10:49:21;19.30;79.60
16287;DHT22;8251;53.568;10.018;2022-10-03T10:52:23;19.30;79.60
16287;DHT22;8251;53.568;10.018;2022-10-03T11:07:40;19.40;78.30
16287;DHT22;8251;53.568;10.018;2022-10-03T11:10:34;19.40;77.40
16287;DHT22;8251;53.568;10.018;2022-10-03T11:16:53;19.40;77.50
16287;DHT22;8251;53.568;10.018;2022-10-03T11:23:02;19.20;79.10
16287;DHT22;8251;53.568;10.018;2022-10-03T11:26:03;19.20;80.60
16287;DHT22;8251;53.568;10.018;2022-10-03T11:29:15;19.10;81.50
16287;DHT22;8251;53.568;10.018;2022-10-03T11:32:24;19.10;82.10
16287;DHT22;8251;53.568;10.018;2022-10-03T11:38:12;19.00;82.60
16287;DHT22;8251;53.568;10.018;2022-10-03T11:40:55;18.90;83.00
16287;DHT22;8251;53.568;10.018;2022-10-03T11:43:50;18.80;83.10
16287;DHT22;8251;53.568;10.018;2022-10-03T11:50:01;18.80;83.80
16287;DHT22;8251;53.568;10.018;2022-10-03T11:52:34;18.80;84.70
16287;DHT22;8251;53.568;10.018;2022-10-03T11:55:22;18.80;84.70
16287;DHT22;8251;53.568;10.018;2022-10-03T11:58:02;18.90;84.80
16287;DHT22;8251;53.568;10.018;2022-10-03T12:00:34;19.10;84.70
16287;DHT22;8251;53.568;10.018;2022-10-03T12:03:15;19.20;83.50
16287;DHT22;8251;53.568;10.018;2022-10-03T12:05:55;19.40;82.60
16287;DHT22;8251;53.568;10.018;2022-10-03T12:08:40;19.70;82.20
16287;DHT22;8251;53.568;10.018;2022-10-03T12:11:27;20.00;81.70
16287;DHT22;8251;53.568;10.018;2022-10-03T12:17:04;20.20;80.30
16287;DHT22;8251;53.568;10.018;2022-10-03T12:19:38;20.20;80.30
16287;DHT22;8251;53.568;10.018;2022-10-03T12:22:19;20.10;80.50
16287;DHT22;8251;53.568;10.018;2022-10-03T12:24:49;20.00;81.10
16287;DHT22;8251;53.568;10.018;2022-10-03T12:27:25;19.90;81.40
16287;DHT22;8251;53.568;10.018;2022-10-03T12:29:56;19.90;81.60
16287;DHT22;8251;53.568;10.018;2022-10-03T12:32:31;19.90;81.90
16287;DHT22;8251;53.568;10.018;2022-10-03T12:35:14;19.80;82.10
16287;DHT22;8251;53.568;10.018;2022-10-03T12:37:55;19.70;82.50
16287;DHT22;8251;53.568;10.018;2022-10-03T12:40:27;19.70;82.50
16287;DHT22;8251;53.568;10.018;2022-10-03T12:43:05;19.60;82.90
16287;DHT22;8251;53.568;10.018;2022-10-03T12:45:37;19.70;83.10
16287;DHT22;8251;53.568;10.018;2022-10-03T12:48:37;19.70;83.10
16287;DHT22;8251;53.568;10.018;2022-10-03T12:51:16;19.60;83.50
16287;DHT22;8251;53.568;10.018;2022-10-03T12:53:53;19.60;83.00
16287;DHT22;8251;53.568;10.018;2022-10-03T12:56:31;19.60;83.00
16287;DHT22;8251;53.568;10.018;2022-10-03T12:59:20;19.50;82.30
16287;DHT22;8251;53.568;10.018;2022-10-03T13:02:16;19.50;82.20
16287;DHT22;8251;53.568;10.018;2022-10-03T13:04:57;19.50;82.80
16287;DHT22;8251;53.568;10.018;2022-10-03T13:07:32;19.40;82.90
16287;DHT22;8251;53.568;10.018;2022-10-03T13:10:14;19.40;83.10
16287;DHT22;8251;53.568;10.018;2022-10-03T13:12:46;19.30;83.40
16287;DHT22;8251;53.568;10.018;2022-10-03T13:15:45;19.30;83.60
16287;DHT22;8251;53.568;10.018;2022-10-03T13:18:30;19.20;83.50
16287;DHT22;8251;53.568;10.018;2022-10-03T13:21:02;19.10;83.60
16287;DHT22;8251;53.568;10.018;2022-10-03T13:23:41;19.00;83.00
16287;DHT22;8251;53.568;10.018;2022-10-03T13:26:15;19.00;83.30
16287;DHT22;8251;53.568;10.018;2022-10-03T13:29:02;19.00;83.10
16287;DHT22;8251;53.568;10.018;2022-10-03T13:31:49;19.00;83.50
16287;DHT22;8251;53.568;10.018;2022-10-03T13:34:23;19.00;83.20
16287;DHT22;8251;53.568;10.018;2022-10-03T13:36:58;19.00;83.10
16287;DHT22;8251;53.568;10.018;2022-10-03T13:39:36;19.00;83.10
16287;DHT22;8251;53.568;10.018;2022-10-03T13:42:11;19.00;83.10
16287;DHT22;8251;53.568;10.018;2022-10-03T13:44:42;19.00;82.90
16287;DHT22;8251;53.568;10.018;2022-10-03T13:47:25;19.00;82.80
16287;DHT22;8251;53.568;10.018;2022-10-03T13:49:56;19.00;83.20
16287;DHT22;8251;53.568;10.018;2022-10-03T13:52:35;19.00;83.10
16287;DHT22;8251;53.568;10.018;2022-10-03T13:55:19;19.00;83.70
16287;DHT22;8251;53.568;10.018;2022-10-03T13:58:13;19.00;83.00
16287;DHT22;8251;53.568;10.018;2022-10-03T14:01:01;19.00;83.40
16287;DHT22;8251;53.568;10.018;2022-10-03T14:03:50;18.90;83.60
16287;DHT22;8251;53.568;10.018;2022-10-03T14:06:28;18.90;83.80
16287;DHT22;8251;53.568;10.018;2022-10-03T14:09:26;19.00;83.60
16287;DHT22;8251;53.568;10.018;2022-10-03T14:12:02;18.90;83.30
16287;DHT22;8251;53.568;10.018;2022-10-03T14:14:56;18.90;83.20
16287;DHT22;8251;53.568;10.018;2022-10-03T14:17:36;18.80;82.50
16287;DHT22;8251;53.568;10.018;2022-10-03T14:20:19;18.80;82.10
16287;DHT22;8251;53.568;10.018;2022-10-03T14:23:03;18.80;81.90
16287;DHT22;8251;53.568;10.018;2022-10-03T14:25:34;18.70;82.50
16287;DHT22;8251;53.568;10.018;2022-10-03T14:28:13;18.80;82.90
16287;DHT22;8251;53.568;10.018;2022-10-03T14:30:52;18.70;83.40
16287;DHT22;8251;53.568;10.018;2022-10-03T14:33:28;18.70;83.10
16287;DHT22;8251;53.568;10.018;2022-10-03T14:36:16;18.60;83.30
16287;DHT22;8251;53.568;10.018;2022-10-03T14:38:57;18.60;83.50
16287;DHT22;8251;53.568;10.018;2022-10-03T14:41:43;18.60;84.00
16287;DHT22;8251;53.568;10.018;2022-10-03T14:44:16;18.50;84.00
16287;DHT22;8251;53.568;10.018;2022-10-03T14:46:49;18.60;84.20
16287;DHT22;8251;53.568;10.018;2022-10-03T14:49:23;18.60;84.40
16287;DHT22;8251;53.568;10.018;2022-10-03T14:51:57;18.60;84.80
16287;DHT22;8251;53.568;10.018;2022-10-03T14:54:27;18.70;84.70
16287;DHT22;8251;53.568;10.018;2022-10-03T14:56:56;18.60;84.90
16287;DHT22;8251;53.568;10.018;2022-10-03T14:59:27;18.60;85.20
16287;DHT22;8251;53.568;10.018;2022-10-03T15:01:59;18.60;85.40
16287;DHT22;8251;53.568;10.018;2022-10-03T15:04:30;18.50;85.90
16287;DHT22;8251;53.568;10.018;2022-10-03T15:07:00;18.60;86.20
16287;DHT22;8251;53.568;10.018;2022-10-03T15:09:32;18.50;86.50
16287;DHT22;8251;53.568;10.018;2022-10-03T15:12:09;18.60;86.70
16287;DHT22;8251;53.568;10.018;2022-10-03T15:14:43;18.60;86.90
16287;DHT22;8251;53.568;10.018;2022-10-03T15:17:20;18.50;87.00
16287;DHT22;8251;53.568;10.018;2022-10-03T15:19:52;18.50;87.10
16287;DHT22;8251;53.568;10.018;2022-10-03T15:22:28;18.50;86.90
16287;DHT22;8251;53.568;10.018;2022-10-03T15:25:02;18.50;86.70
16287;DHT22;8251;53.568;10.018;2022-10-03T15:27:31;18.50;86.60
16287;DHT22;8251;53.568;10.018;2022-10-03T15:30:02;18.50;86.20
16287;DHT22;8251;53.568;10.018;2022-10-03T15:32:34;18.50;86.20
16287;DHT22;8251;53.568;10.018;2022-10-03T15:35:02;18.50;85.80
16287;DHT22;8251;53.568;10.018;2022-10-03T15:37:35;18.40;85.60
16287;DHT22;8251;53.568;10.018;2022-10-03T15:40:08;18.40;85.50
16287;DHT22;8251;53.568;10.018;2022-10-03T15:42:50;18.40;85.60
16287;DHT22;8251;53.568;10.018;2022-10-03T15:45:23;18.30;85.40
16287;DHT22;8251;53.568;10.018;2022-10-03T15:47:57;18.20;85.40
16287;DHT22;8251;53.568;10.018;2022-10-03T15:50:30;18.30;85.30
16287;DHT22;8251;53.568;10.018;2022-10-03T15:53:08;18.30;85.20
16287;DHT22;8251;53.568;10.018;2022-10-03T15:55:42;18.30;85.50
16287;DHT22;8251;53.568;10.018;2022-10-03T15:58:16;18.20;85.40
16287;DHT22;8251;53.568;10.018;2022-10-03T16:00:48;18.20;85.60
16287;DHT22;8251;53.568;10.018;2022-10-03T16:03:25;18.20;85.60
16287;DHT22;8251;53.568;10.018;2022-10-03T16:06:02;18.20;85.60
16287;DHT22;8251;53.568;10.018;2022-10-03T16:08:37;18.20;85.70
16287;DHT22;8251;53.568;10.018;2022-10-03T16:11:12;18.30;85.60
16287;DHT22;8251;53.568;10.018;2022-10-03T16:13:43;18.20;85.60
16287;DHT22;8251;53.568;10.018;2022-10-03T16:16:16;18.10;85.90
16287;DHT22;8251;53.568;10.018;2022-10-03T16:19:01;18.10;85.70
16287;DHT22;8251;53.568;10.018;2022-10-03T16:21:42;18.20;85.90
16287;DHT22;8251;53.568;10.018;2022-10-03T16:24:26;18.20;85.90
16287;DHT22;8251;53.568;10.018;2022-10-03T16:26:56;18.20;85.90
16287;DHT22;8251;53.568;10.018;2022-10-03T16:29:29;18.10;86.20
16287;DHT22;8251;53.568;10.018;2022-10-03T16:32:04;18.00;86.30
16287;DHT22;8251;53.568;10.018;2022-10-03T16:34:33;18.00;87.30
16287;DHT22;8251;53.568;10.018;2022-10-03T16:37:15;18.00;86.70
16287;DHT22;8251;53.568;10.018;2022-10-03T16:39:50;17.90;86.80
16287;DHT22;8251;53.568;10.018;2022-10-03T16:42:20;17.90;87.00
16287;DHT22;8251;53.568;10.018;2022-10-03T16:44:51;17.90;87.20
16287;DHT22;8251;53.568;10.018;2022-10-03T16:47:28;17.80;87.40
16287;DHT22;8251;53.568;10.018;2022-10-03T16:49:58;17.80;87.70
16287;DHT22;8251;53.568;10.018;2022-10-03T16:52:46;17.80;87.80
16287;DHT22;8251;53.568;10.018;2022-10-03T16:55:20;17.70;88.00
16287;DHT22;8251;53.568;10.018;2022-10-03T16:57:53;17.70;88.00
16287;DHT22;8251;53.568;10.018;2022-10-03T17:00:27;17.70;88.50
16287;DHT22;8251;53.568;10.018;2022-10-03T17:02:57;17.60;88.90
16287;DHT22;8251;53.568;10.018;2022-10-03T17:05:24;17.60;89.00
16287;DHT22;8251;53.568;10.018;2022-10-03T17:07:56;17.50;89.00
16287;DHT22;8251;53.568;10.018;2022-10-03T17:10:33;17.50;89.20
16287;DHT22;8251;53.568;10.018;2022-10-03T17:13:10;17.50;89.20
16287;DHT22;8251;53.568;10.018;2022-10-03T17:15:45;17.50;89.40
16287;DHT22;8251;53.568;10.018;2022-10-03T17:18:22;17.50;89.50
16287;DHT22;8251;53.568;10.018;2022-10-03T17:20:54;17.50;89.60
16287;DHT22;8251;53.568;10.018;2022-10-03T17:23:31;17.50;89.80
16287;DHT22;8251;53.568;10.018;2022-10-03T17:26:08;17.40;89.80
16287;DHT22;8251;53.568;10.018;2022-10-03T17:28:43;17.40;90.00
16287;DHT22;8251;53.568;10.018;2022-10-03T17:31:33;17.40;90.10
16287;DHT22;8251;53.568;10.018;2022-10-03T17:34:09;17.40;90.00
16287;DHT22;8251;53.568;10.018;2022-10-03T17:39:45;17.30;90.10
16287;DHT22;8251;53.568;10.018;2022-10-03T17:42:30;17.30;90.20
16287;DHT22;8251;53.568;10.018;2022-10-03T17:45:09;17.30;90.20
16287;DHT22;8251;53.568;10.018;2022-10-03T17:47:48;17.20;90.20
16287;DHT22;8251;53.568;10.018;2022-10-03T17:50:21;17.20;90.10
16287;DHT22;8251;53.568;10.018;2022-10-03T17:52:49;17.20;90.30
16287;DHT22;8251;53.568;10.018;2022-10-03T17:55:19;17.20;90.20
16287;DHT22;8251;53.568;10.018;2022-10-03T17:57:51;17.10;90.20
16287;DHT22;8251;53.568;10.018;2022-10-03T18:00:22;17.10;90.20
16287;DHT22;8251;53.568;10.018;2022-10-03T18:02:55;17.10;90.30
16287;DHT22;8251;53.568;10.018;2022-10-03T18:05:26;17.10;90.30
16287;DHT22;8251;53.568;10.018;2022-10-03T18:07:54;17.10;90.40
16287;DHT22;8251;53.568;10.018;2022-10-03T18:10:25;17.10;90.30
16287;DHT22;8251;53.568;10.018;2022-10-03T18:12:57;17.00;90.30
16287;DHT22;8251;53.568;10.018;2022-10-03T18:15:49;17.00;90.30
16287;DHT22;8251;53.568;10.018;2022-10-03T18:21:33;16.90;90.50
16287;DHT22;8251;53.568;10.018;2022-10-03T18:24:38;17.00;90.60
16287;DHT22;8251;53.568;10.018;2022-10-03T18:30:03;16.90;90.60
16287;DHT22;8251;53.568;10.018;2022-10-03T18:32:36;16.90;90.70
16287;DHT22;8251;53.568;10.018;2022-10-03T18:35:09;16.90;90.80
16287;DHT22;8251;53.568;10.018;2022-10-03T18:38:04;16.90;90.80
16287;DHT22;8251;53.568;10.018;2022-10-03T18:40:34;16.80;90.70
16287;DHT22;8251;53.568;10.018;2022-10-03T18:43:04;16.80;90.80
16287;DHT22;8251;53.568;10.018;2022-10-03T18:45:41;16.80;90.90
16287;DHT22;8251;53.568;10.018;2022-10-03T18:48:12;16.80;90.90
16287;DHT22;8251;53.568;10.018;2022-10-03T18:50:55;16.80;90.90
16287;DHT22;8251;53.568;10.018;2022-10-03T18:53:30;16.80;91.00
16287;DHT22;8251;53.568;10.018;2022-10-03T18:56:04;16.80;91.00
16287;DHT22;8251;53.568;10.018;2022-10-03T18:58:36;16.80;91.00
16287;DHT22;8251;53.568;10.018;2022-10-03T19:01:14;16.80;91.00
16287;DHT22;8251;53.568;10.018;2022-10-03T19:03:45;16.80;91.00
16287;DHT22;8251;53.568;10.018;2022-10-03T19:06:19;16.80;91.00
16287;DHT22;8251;53.568;10.018;2022-10-03T19:08:49;16.70;91.00
16287;DHT22;8251;53.568;10.018;2022-10-03T19:11:20;16.70;91.00
16287;DHT22;8251;53.568;10.018;2022-10-03T19:13:56;16.70;91.10
16287;DHT22;8251;53.568;10.018;2022-10-03T19:17:08;16.70;91.10
16287;DHT22;8251;53.568;10.018;2022-10-03T19:19:49;16.70;91.10
16287;DHT22;8251;53.568;10.018;2022-10-03T19:22:24;16.70;91.10
16287;DHT22;8251;53.568;10.018;2022-10-03T19:24:52;16.70;91.20
16287;DHT22;8251;53.568;10.018;2022-10-03T19:27:23;16.70;91.20
16287;DHT22;8251;53.568;10.018;2022-10-03T19:29:53;16.70;91.20
16287;DHT22;8251;53.568;10.018;2022-10-03T19:32:27;16.70;91.20
16287;DHT22;8251;53.568;10.018;2022-10-03T19:35:00;16.70;91.20
16287;DHT22;8251;53.568;10.018;2022-10-03T19:37:38;16.70;91.20
16287;DHT22;8251;53.568;10.018;2022-10-03T19:40:13;16.70;91.20